Bentonville, AR

10:53 PM CDT on August 31, 2016 (GMT -0500)
Blueberry Heights | | Change Station

Elev 1306 ft 36.38 °N, 94.18 °W | Updated 184 days ago

Cloudy
Cloudy
71 °F
Feels Like 71 °F
N
3
Wind Variable Wind from NE
Gusts mph

Today
High -- | Low -- °F
--% Chance of Precip.
Yesterday
High -- | Low -- °F
Precip. -- in
Pressure 30.08 in
Visibility 10.0 miles
Clouds Few 4200 ft
Dew Point 67 °F
Humidity 86%
Rainfall in
Snow Depth Not available.
6:47 AM 7:45 PM
Waning Crescent, 0% visible
METAR KVBT 010335Z AUTO 06006KT 10SM FEW042 24/18 A3008 RMK AO1
Pressure 30.08 in
Visibility 10.0 miles
Clouds Few 4200 ft
Dew Point 67 °F
Humidity 86%
Rainfall in
Snow Depth Not available.
6:47 AM 7:45 PM
Waning Crescent, 0% visible
METAR KVBT 010335Z AUTO 06006KT 10SM FEW042 24/18 A3008 RMK AO1

10-Day Weather Forecast

Almanac

Astronomy

Aug. 31, 2016 Rise Set
Actual Time
Civil Twilight
Nautical Twilight
Astronomical Twilight
Moon
Length of Visible Light
Length of Day
Tomorrow will be .
, % of the Moon is Illuminated

Today's Extremes

State Highs State Lows

Community

WunderPhotos

Upload Photos

1,936,291 photos uploaded!

WunderBlog® & News

Nearby

Air Quality

  Air Quality AQ Index Pollutant
Not available.

Snow Depth

Station Depth Elevation

Earthquake Activity

City Distance Mag. Time & Date
Minimum magnitude displayed is 2.5.

Coastal Water Temperatures

Place Temperature

Stations

Nearby Weather Stations

Station Location Temp. Windchill Dew Point Humidity Wind Precip. Elev Updated Type
                   

Watches & Warnings

There are currently no watches in effect.